Sheffield Township, Ohio
Current Conditions -  °F | °C
As of 3:22 AM on Tuesday 21 Oct 2014 (Local Time) from KLPR Reporting Station
Haze Haze  
Wind Chill: 52°   Ceiling: 1900
Heat Index: 52°   Visibility: 5mi
Dew Point: 51°   Wind: 7mph
Humidity: 97%   Direction: 360°N
Pressure: 29.85"   Gusts: NA
Location:  41.465°N, 82.0929°W
Report Text: KLPR 210722Z AUTO 36006KT 5SM BR SCT006 BKN019 OVC025 11/11 A2985 RMK AO2 RAE11 P0000 T01110106 TSNO
Loading
Personal Weather Stations






























Interactive Weather Map
Tropical Storm Tracking
New forecast layout! Learn more

10-Day Weather Forecast

Advertisements
Track Severe Weather on mobile